createdAt,value
2017-12-27T00:00:23.922Z,3.7
2017-12-27T00:01:23.914Z,3.69
2017-12-27T00:02:23.910Z,3.7
2017-12-27T00:03:23.942Z,3.7
2017-12-27T00:04:23.910Z,3.72
2017-12-27T00:05:23.915Z,3.72
2017-12-27T00:06:23.892Z,3.71
2017-12-27T00:07:23.939Z,3.71
2017-12-27T00:08:23.951Z,3.72
2017-12-27T00:09:24.776Z,3.71
2017-12-27T00:10:23.938Z,3.71
2017-12-27T00:11:23.909Z,3.7
2017-12-27T00:12:23.906Z,3.7
2017-12-27T00:13:23.980Z,3.7
2017-12-27T00:14:23.965Z,3.69
2017-12-27T00:15:23.991Z,3.68
2017-12-27T00:16:23.915Z,3.67
2017-12-27T00:17:23.907Z,3.68
2017-12-27T00:18:23.891Z,3.66
2017-12-27T00:19:23.944Z,3.66
2017-12-27T00:20:23.920Z,3.64
2017-12-27T00:21:24.229Z,3.63
2017-12-27T00:22:23.934Z,3.61
2017-12-27T00:23:23.931Z,3.59
2017-12-27T00:24:23.925Z,3.57
2017-12-27T00:25:23.956Z,3.56
2017-12-27T00:26:24.175Z,3.53
2017-12-27T00:27:23.969Z,3.51
2017-12-27T00:28:23.980Z,3.49
2017-12-27T00:29:23.960Z,3.47
2017-12-27T00:30:23.932Z,3.44
2017-12-27T00:31:23.956Z,3.44
2017-12-27T00:32:23.922Z,3.41
2017-12-27T00:33:23.930Z,3.39
2017-12-27T00:34:23.921Z,3.39
2017-12-27T00:35:24.033Z,3.37
2017-12-27T00:36:23.975Z,3.35
2017-12-27T00:37:23.937Z,3.34
2017-12-27T00:38:23.925Z,3.32
2017-12-27T00:39:24.564Z,3.32
2017-12-27T00:40:24.156Z,3.31
2017-12-27T00:41:23.977Z,3.31
2017-12-27T00:42:23.979Z,3.3
2017-12-27T00:43:27.300Z,3.29
2017-12-27T00:44:24.231Z,3.3
2017-12-27T00:45:23.985Z,3.29
2017-12-27T00:46:24.822Z,3.29
2017-12-27T00:47:23.981Z,3.28
2017-12-27T00:48:24.063Z,3.28
2017-12-27T00:49:24.144Z,3.27
2017-12-27T00:50:23.981Z,3.28
2017-12-27T00:51:23.962Z,3.27
2017-12-27T00:52:23.940Z,3.27
2017-12-27T00:53:25.235Z,3.27
2017-12-27T00:54:24.145Z,3.26
2017-12-27T00:55:23.997Z,3.27
2017-12-27T00:56:23.942Z,3.26
2017-12-27T00:57:24.002Z,3.27
2017-12-27T00:58:23.982Z,3.26
2017-12-27T00:59:24.034Z,3.26
2017-12-27T01:00:24.145Z,3.25
2017-12-27T01:01:23.961Z,3.24
2017-12-27T01:02:25.352Z,3.24
2017-12-27T01:03:25.778Z,3.23
2017-12-27T01:04:24.079Z,3.25
2017-12-27T01:05:24.640Z,3.25
2017-12-27T01:06:25.768Z,3.26
2017-12-27T01:07:23.973Z,3.26
2017-12-27T01:08:24.105Z,3.27
2017-12-27T01:09:24.757Z,3.3
2017-12-27T01:10:24.764Z,3.33
2017-12-27T01:11:24.039Z,3.33
2017-12-27T01:12:24.180Z,3.33
2017-12-27T01:13:24.010Z,3.34
2017-12-27T01:14:24.523Z,3.36
2017-12-27T01:15:24.145Z,3.36
2017-12-27T01:16:24.087Z,3.35
2017-12-27T01:17:24.037Z,3.38
2017-12-27T01:18:24.996Z,3.39
2017-12-27T01:19:24.029Z,3.39
2017-12-27T01:20:24.074Z,3.44
2017-12-27T01:21:24.013Z,3.43
2017-12-27T01:22:23.988Z,3.43
2017-12-27T01:23:24.071Z,3.45
2017-12-27T01:24:23.998Z,3.43
2017-12-27T01:25:24.011Z,3.43
2017-12-27T01:26:24.024Z,3.42
2017-12-27T01:27:24.045Z,3.43
2017-12-27T01:28:24.115Z,3.45
2017-12-27T01:29:29.599Z,3.45
2017-12-27T01:30:24.066Z,3.45
2017-12-27T01:31:24.069Z,3.44
2017-12-27T01:34:24.025Z,3.47
2017-12-27T01:35:24.381Z,3.46
2017-12-27T01:36:24.062Z,3.46
2017-12-27T01:37:24.010Z,3.45
2017-12-27T01:38:24.093Z,3.44
2017-12-27T01:39:24.002Z,3.44
2017-12-27T01:40:24.022Z,3.43
2017-12-27T01:41:24.122Z,3.42
2017-12-27T01:42:24.012Z,3.42
2017-12-27T01:43:24.006Z,3.42
2017-12-27T01:44:24.025Z,3.43
2017-12-27T01:45:24.019Z,3.43
2017-12-27T01:46:24.040Z,3.46
2017-12-27T01:47:24.003Z,3.46
2017-12-27T01:48:24.010Z,3.44
2017-12-27T01:49:24.065Z,3.44
2017-12-27T01:50:24.038Z,3.43
2017-12-27T01:51:24.721Z,3.42
2017-12-27T01:52:24.300Z,3.43
2017-12-27T01:53:24.059Z,3.42
2017-12-27T01:54:24.190Z,3.41
2017-12-27T01:55:24.022Z,3.39
2017-12-27T01:56:24.257Z,3.39
2017-12-27T01:57:24.080Z,3.38
2017-12-27T01:58:24.063Z,3.38
2017-12-27T01:59:24.441Z,3.37
2017-12-27T02:00:24.006Z,3.35
2017-12-27T02:01:24.141Z,3.34
2017-12-27T02:02:24.061Z,3.33
2017-12-27T02:03:24.224Z,3.3
2017-12-27T02:04:24.159Z,3.28
2017-12-27T02:05:24.233Z,3.26
2017-12-27T02:06:24.006Z,3.23
2017-12-27T02:07:24.017Z,3.22
2017-12-27T02:08:24.260Z,3.2
2017-12-27T02:09:24.056Z,3.21
2017-12-27T02:10:24.052Z,3.18
2017-12-27T02:11:24.024Z,3.16
2017-12-27T02:12:25.679Z,3.14
2017-12-27T02:13:24.252Z,3.12
2017-12-27T02:14:24.590Z,3.1
2017-12-27T02:15:24.070Z,3.09
2017-12-27T02:16:24.039Z,3.08
2017-12-27T02:17:24.466Z,3.07
2017-12-27T02:18:24.075Z,3.05
2017-12-27T02:19:24.072Z,3.05
2017-12-27T02:20:24.051Z,3.04
2017-12-27T02:21:24.837Z,3.02
2017-12-27T02:22:26.708Z,3.03
2017-12-27T02:23:24.042Z,3.02
2017-12-27T02:24:24.035Z,3.03
2017-12-27T02:25:24.065Z,3.02
2017-12-27T02:26:24.506Z,3.02
2017-12-27T02:27:25.515Z,3.02
2017-12-27T02:28:24.031Z,3.01
2017-12-27T02:29:25.088Z,3.01
2017-12-27T02:30:24.575Z,3
2017-12-27T02:31:25.087Z,3.02
2017-12-27T02:32:24.196Z,3.02
2017-12-27T02:33:24.061Z,3.05
2017-12-27T02:34:24.074Z,3.06
2017-12-27T02:35:24.065Z,3.05
2017-12-27T02:36:24.100Z,3.05
2017-12-27T02:37:24.401Z,3.04
2017-12-27T02:38:24.064Z,3.03
2017-12-27T02:39:24.258Z,3.03
2017-12-27T02:40:24.062Z,3.02
2017-12-27T02:41:24.047Z,3.01
2017-12-27T02:42:24.832Z,3
2017-12-27T02:43:25.032Z,3.01
2017-12-27T02:44:24.408Z,3.02
2017-12-27T02:45:24.052Z,3.01
2017-12-27T02:46:24.052Z,3
2017-12-27T02:47:24.082Z,3.02
2017-12-27T02:48:24.053Z,3.04
2017-12-27T02:49:24.323Z,3.04
2017-12-27T02:50:25.103Z,3.06
2017-12-27T02:51:24.063Z,3.07
2017-12-27T02:52:24.129Z,3.08
2017-12-27T02:53:24.870Z,3.08
2017-12-27T02:54:24.190Z,3.11
2017-12-27T02:55:24.105Z,3.11
2017-12-27T02:56:24.055Z,3.13
2017-12-27T02:57:24.085Z,3.17
2017-12-27T02:58:25.017Z,3.18
2017-12-27T02:59:25.183Z,3.19
2017-12-27T03:00:25.121Z,3.21
2017-12-27T03:01:24.094Z,3.21
2017-12-27T03:02:24.086Z,3.23
2017-12-27T03:03:24.146Z,3.21
2017-12-27T03:04:24.116Z,3.2
2017-12-27T03:05:24.420Z,3.2
2017-12-27T03:06:26.978Z,3.2
2017-12-27T03:07:24.121Z,3.22
2017-12-27T03:08:24.147Z,3.22
2017-12-27T03:09:24.097Z,3.23
2017-12-27T03:10:24.089Z,3.21
2017-12-27T03:11:25.013Z,3.22
2017-12-27T03:12:24.120Z,3.21
2017-12-27T03:13:24.112Z,3.21
2017-12-27T03:14:24.090Z,3.21
2017-12-27T03:15:24.105Z,3.2
2017-12-27T03:16:24.110Z,3.21
2017-12-27T03:17:24.160Z,3.2
2017-12-27T03:18:25.134Z,3.2
2017-12-27T03:20:24.084Z,3.18
2017-12-27T03:21:24.181Z,3.18
2017-12-27T03:22:25.158Z,3.2
2017-12-27T03:23:27.015Z,3.18
2017-12-27T03:24:24.127Z,3.19
2017-12-27T03:25:24.116Z,3.18
2017-12-27T03:26:24.127Z,3.18
2017-12-27T03:27:24.730Z,3.19
2017-12-27T03:28:24.183Z,3.18
2017-12-27T03:29:24.558Z,3.19
2017-12-27T03:30:24.169Z,3.19
2017-12-27T03:31:24.118Z,3.2
2017-12-27T03:32:24.500Z,3.2
2017-12-27T03:33:24.148Z,3.22
2017-12-27T03:34:24.710Z,3.22
2017-12-27T03:35:24.174Z,3.22
2017-12-27T03:36:24.752Z,3.23
2017-12-27T03:37:24.130Z,3.28
2017-12-27T03:38:26.587Z,3.29
2017-12-27T03:39:25.177Z,3.31
2017-12-27T03:40:24.118Z,3.32
2017-12-27T03:41:24.242Z,3.33
2017-12-27T03:42:24.861Z,3.37
2017-12-27T03:43:25.185Z,3.39
2017-12-27T03:44:24.141Z,3.38
2017-12-27T03:45:58.031Z,3.41
2017-12-27T03:47:59.029Z,3.41
2017-12-27T03:52:00.640Z,3.42
2017-12-27T03:53:02.169Z,3.44
2017-12-27T03:54:40.421Z,3.41
2017-12-27T03:59:21.810Z,3.39
2017-12-27T04:02:22.458Z,3.33
2017-12-27T04:03:20.385Z,3.32
2017-12-27T04:04:20.378Z,3.3
2017-12-27T04:05:20.398Z,3.29
2017-12-27T04:06:20.403Z,3.29
2017-12-27T04:07:20.383Z,3.27
2017-12-27T04:08:20.400Z,3.26
2017-12-27T04:09:20.376Z,3.27
2017-12-27T04:10:20.395Z,3.27
2017-12-27T04:11:20.397Z,3.27
2017-12-27T04:12:20.343Z,3.27
2017-12-27T04:13:20.358Z,3.28
2017-12-27T04:14:20.371Z,3.29
2017-12-27T04:15:20.390Z,3.31
2017-12-27T04:16:20.659Z,3.34
2017-12-27T04:17:20.373Z,3.35
2017-12-27T04:18:20.380Z,3.34
2017-12-27T04:19:20.381Z,3.35
2017-12-27T04:20:20.386Z,3.37
2017-12-27T04:21:20.411Z,3.37
2017-12-27T04:22:20.556Z,3.39
2017-12-27T04:23:20.370Z,3.4
2017-12-27T04:24:20.381Z,3.4
2017-12-27T04:25:20.414Z,3.41
2017-12-27T04:26:20.404Z,3.4
2017-12-27T04:27:20.438Z,3.4
2017-12-27T04:28:20.766Z,3.43
2017-12-27T04:29:20.383Z,3.44
2017-12-27T04:30:20.373Z,3.45
2017-12-27T04:31:20.405Z,3.45
2017-12-27T04:32:20.411Z,3.46
2017-12-27T04:33:20.428Z,3.46
2017-12-27T04:34:20.435Z,3.46
2017-12-27T04:35:20.407Z,3.46
2017-12-27T04:36:20.427Z,3.46
2017-12-27T04:37:20.389Z,3.46
2017-12-27T04:38:20.411Z,3.47
2017-12-27T04:39:20.433Z,3.47
2017-12-27T04:40:20.459Z,3.47
2017-12-27T04:41:20.425Z,3.47
2017-12-27T04:42:20.416Z,3.48
2017-12-27T04:43:20.383Z,3.47
2017-12-27T04:44:20.413Z,3.48
2017-12-27T04:45:20.442Z,3.48
2017-12-27T04:46:20.465Z,3.48
2017-12-27T04:47:20.460Z,3.46
2017-12-27T04:48:20.423Z,3.46
2017-12-27T04:49:20.414Z,3.46
2017-12-27T04:50:20.425Z,3.46
2017-12-27T04:51:20.471Z,3.46
2017-12-27T04:52:20.474Z,3.47
2017-12-27T04:53:20.415Z,3.47
2017-12-27T04:54:20.406Z,3.46
2017-12-27T04:55:20.425Z,3.46
2017-12-27T04:56:20.407Z,3.47
2017-12-27T04:57:20.426Z,3.47
2017-12-27T04:58:20.592Z,3.46
2017-12-27T04:59:20.406Z,3.46
2017-12-27T05:00:20.436Z,3.46
2017-12-27T05:01:20.404Z,3.45
2017-12-27T05:02:20.426Z,3.45
2017-12-27T05:03:20.481Z,3.46
2017-12-27T05:04:20.593Z,3.47
2017-12-27T05:05:20.412Z,3.47
2017-12-27T05:06:20.416Z,3.49
2017-12-27T05:07:20.466Z,3.5
2017-12-27T05:08:20.433Z,3.5
2017-12-27T05:09:20.479Z,3.51
2017-12-27T05:10:20.471Z,3.52
2017-12-27T05:11:20.456Z,3.54
2017-12-27T05:12:20.479Z,3.54
2017-12-27T05:13:20.439Z,3.56
2017-12-27T05:14:20.445Z,3.57
2017-12-27T05:15:20.482Z,3.57
2017-12-27T05:16:20.473Z,3.59
2017-12-27T05:17:20.432Z,3.6
2017-12-27T05:18:20.531Z,3.62
2017-12-27T05:19:20.430Z,3.61
2017-12-27T05:20:20.440Z,3.63
2017-12-27T05:21:20.499Z,3.64
2017-12-27T05:22:20.452Z,3.63
2017-12-27T05:23:20.459Z,3.64
2017-12-27T05:24:20.456Z,3.65
2017-12-27T05:25:20.458Z,3.67
2017-12-27T05:26:20.499Z,3.68
2017-12-27T05:27:20.665Z,3.71
2017-12-27T05:28:20.446Z,3.72
2017-12-27T05:29:20.486Z,3.71
2017-12-27T05:30:20.477Z,3.71
2017-12-27T05:31:20.457Z,3.73
2017-12-27T05:32:20.475Z,3.74
2017-12-27T05:33:20.473Z,3.76
2017-12-27T05:34:20.477Z,3.77
2017-12-27T05:35:20.516Z,3.78
2017-12-27T05:36:20.470Z,3.79
2017-12-27T05:37:20.499Z,3.8
2017-12-27T05:38:20.503Z,3.82
2017-12-27T05:39:20.448Z,3.84
2017-12-27T05:40:20.470Z,3.84
2017-12-27T05:41:20.484Z,3.84
2017-12-27T05:42:20.462Z,3.85
2017-12-27T05:43:20.567Z,3.85
2017-12-27T05:44:20.477Z,3.88
2017-12-27T05:45:20.482Z,3.88
2017-12-27T05:46:20.486Z,3.88
2017-12-27T05:47:20.514Z,3.9
2017-12-27T05:48:20.524Z,3.91
2017-12-27T05:49:20.536Z,3.94
2017-12-27T05:50:20.515Z,3.97
2017-12-27T05:51:20.485Z,3.99
2017-12-27T05:52:20.516Z,3.98
2017-12-27T05:53:20.522Z,4.01
2017-12-27T05:54:20.848Z,4.03
2017-12-27T05:55:20.459Z,4.02
2017-12-27T05:56:20.456Z,4.03
2017-12-27T05:57:20.476Z,4.03
2017-12-27T05:58:20.480Z,4.03
2017-12-27T05:59:20.545Z,4.05
2017-12-27T06:00:20.524Z,4.06
2017-12-27T06:01:20.490Z,4.07
2017-12-27T06:02:20.481Z,4.06
2017-12-27T06:03:20.536Z,4.09
2017-12-27T06:04:20.524Z,4.12
2017-12-27T06:05:20.513Z,4.12
2017-12-27T06:06:20.820Z,4.12
2017-12-27T06:07:20.486Z,4.13
2017-12-27T06:08:20.537Z,4.14
2017-12-27T06:09:20.544Z,4.16
2017-12-27T06:10:20.517Z,4.16
2017-12-27T06:11:22.494Z,4.16
2017-12-27T06:12:20.899Z,4.17
2017-12-27T06:13:20.521Z,4.18
2017-12-27T06:14:20.477Z,4.2
2017-12-27T06:15:20.518Z,4.19
2017-12-27T06:16:20.489Z,4.19
2017-12-27T06:17:20.503Z,4.18
2017-12-27T06:18:20.545Z,4.19
2017-12-27T06:19:20.513Z,4.2
2017-12-27T06:20:20.587Z,4.2
2017-12-27T06:21:20.516Z,4.19
2017-12-27T06:22:20.534Z,4.2
2017-12-27T06:23:20.525Z,4.21
2017-12-27T06:24:20.519Z,4.2
2017-12-27T06:25:20.568Z,4.22
2017-12-27T06:26:20.508Z,4.21
2017-12-27T06:27:20.579Z,4.23
2017-12-27T06:28:20.546Z,4.22
2017-12-27T06:29:20.518Z,4.22
2017-12-27T06:30:20.506Z,4.21
2017-12-27T06:31:20.533Z,4.2
2017-12-27T06:32:20.545Z,4.19
2017-12-27T06:33:20.734Z,4.19
2017-12-27T06:34:20.534Z,4.17
2017-12-27T06:35:20.501Z,4.16
2017-12-27T06:36:20.546Z,4.15
2017-12-27T06:37:20.503Z,4.15
2017-12-27T06:38:20.572Z,4.13
2017-12-27T06:39:20.500Z,4.11
2017-12-27T06:40:20.526Z,4.11
2017-12-27T06:41:20.519Z,4.1
2017-12-27T06:42:20.610Z,4.09
2017-12-27T06:43:20.602Z,4.09
2017-12-27T06:44:20.567Z,4.08
2017-12-27T06:45:20.620Z,4.07
2017-12-27T06:46:20.583Z,4.06
2017-12-27T06:47:20.590Z,4.05
2017-12-27T06:48:20.613Z,4.05
2017-12-27T06:49:20.540Z,4.04
2017-12-27T06:50:20.592Z,4.05
2017-12-27T06:51:20.787Z,4.03
2017-12-27T06:52:20.560Z,4.03
2017-12-27T06:53:20.684Z,4.03
2017-12-27T06:54:20.595Z,4.03
2017-12-27T06:55:20.608Z,4.02
2017-12-27T06:56:20.601Z,4.02
2017-12-27T06:57:20.581Z,4
2017-12-27T06:58:20.870Z,3.99
2017-12-27T06:59:20.616Z,3.98
2017-12-27T07:00:20.574Z,3.95
2017-12-27T07:01:20.568Z,3.94
2017-12-27T07:02:20.605Z,3.93
2017-12-27T07:03:20.669Z,3.92
2017-12-27T07:04:20.667Z,3.92
2017-12-27T07:05:20.629Z,3.9
2017-12-27T07:06:20.564Z,3.9
2017-12-27T07:07:20.609Z,3.9
2017-12-27T07:08:20.587Z,3.9
2017-12-27T07:09:20.641Z,3.91
2017-12-27T07:10:20.574Z,3.91
2017-12-27T07:11:20.616Z,3.91
2017-12-27T07:12:20.604Z,3.9
2017-12-27T07:13:20.610Z,3.89
2017-12-27T07:14:20.614Z,3.92
2017-12-27T07:15:20.639Z,3.9
2017-12-27T07:16:20.586Z,3.89
2017-12-27T07:17:20.627Z,3.87
2017-12-27T07:18:20.629Z,3.85
2017-12-27T07:19:20.584Z,3.86
2017-12-27T07:20:20.609Z,3.85
2017-12-27T07:21:20.601Z,3.84
2017-12-27T07:22:20.655Z,3.84
2017-12-27T07:23:20.570Z,3.85
2017-12-27T07:24:20.634Z,3.83
2017-12-27T07:25:20.684Z,3.82
2017-12-27T07:26:20.591Z,3.83
2017-12-27T07:27:20.570Z,3.82
2017-12-27T07:28:20.592Z,3.82
2017-12-27T07:29:22.241Z,3.82
2017-12-27T07:30:20.656Z,3.81
2017-12-27T07:31:20.613Z,3.8
2017-12-27T07:32:20.587Z,3.81
2017-12-27T07:33:20.587Z,3.79
2017-12-27T07:34:20.618Z,3.79
2017-12-27T07:35:20.771Z,3.78
2017-12-27T07:36:20.612Z,3.77
2017-12-27T07:37:20.618Z,3.77
2017-12-27T07:38:20.580Z,3.77
2017-12-27T07:39:20.587Z,3.75
2017-12-27T07:40:20.642Z,3.74
2017-12-27T07:41:20.666Z,3.75
2017-12-27T07:42:20.620Z,3.75
2017-12-27T07:43:20.635Z,3.75
2017-12-27T07:44:20.610Z,3.75
2017-12-27T07:45:20.610Z,3.74
2017-12-27T07:46:20.685Z,3.73
2017-12-27T07:47:20.636Z,3.73
2017-12-27T07:48:20.606Z,3.74
2017-12-27T07:49:20.589Z,3.73
2017-12-27T07:50:20.583Z,3.73
2017-12-27T07:51:20.646Z,3.74
2017-12-27T07:52:20.977Z,3.76
2017-12-27T07:53:20.675Z,3.76
2017-12-27T07:54:20.603Z,3.76
2017-12-27T07:55:20.660Z,3.75
2017-12-27T07:56:20.616Z,3.75
2017-12-27T07:57:20.654Z,3.77
2017-12-27T07:58:20.644Z,3.77
2017-12-27T07:59:20.614Z,3.78
2017-12-27T08:00:20.603Z,3.79
2017-12-27T08:01:20.625Z,3.78
2017-12-27T08:02:20.694Z,3.77
2017-12-27T08:03:20.667Z,3.76
2017-12-27T08:04:20.657Z,3.75
2017-12-27T08:05:20.669Z,3.77
2017-12-27T08:06:20.704Z,3.78
2017-12-27T08:07:20.707Z,3.78
2017-12-27T08:08:20.833Z,3.78
2017-12-27T08:09:20.694Z,3.79
2017-12-27T08:10:20.674Z,3.78
2017-12-27T08:11:20.673Z,3.78
2017-12-27T08:12:20.657Z,3.77
2017-12-27T08:13:21.065Z,3.77
2017-12-27T08:14:20.646Z,3.78
2017-12-27T08:15:20.648Z,3.78
2017-12-27T08:16:20.639Z,3.77
2017-12-27T08:17:20.625Z,3.77
2017-12-27T08:18:20.657Z,3.76
2017-12-27T08:19:20.692Z,3.75
2017-12-27T08:20:20.619Z,3.74
2017-12-27T08:21:20.649Z,3.73
2017-12-27T08:22:20.659Z,3.73
2017-12-27T08:23:20.662Z,3.72
2017-12-27T08:24:20.733Z,3.71
2017-12-27T08:25:20.666Z,3.7
2017-12-27T08:26:20.742Z,3.69
2017-12-27T08:27:20.650Z,3.68
2017-12-27T08:28:20.653Z,3.67
2017-12-27T08:29:20.716Z,3.67
2017-12-27T08:32:35.682Z,3.66
2017-12-27T08:33:20.720Z,3.66
2017-12-27T08:34:20.713Z,3.65
2017-12-27T08:35:20.688Z,3.64
2017-12-27T08:36:20.667Z,3.65
2017-12-27T08:37:20.703Z,3.64
2017-12-27T08:38:20.875Z,3.65
2017-12-27T08:39:20.693Z,3.65
2017-12-27T08:40:20.651Z,3.64
2017-12-27T08:41:20.745Z,3.65
2017-12-27T08:42:20.736Z,3.65
2017-12-27T08:43:20.711Z,3.65
2017-12-27T08:44:20.736Z,3.64
2017-12-27T08:45:20.802Z,3.65
2017-12-27T08:46:20.677Z,3.64
2017-12-27T08:47:20.759Z,3.64
2017-12-27T08:48:20.669Z,3.65
2017-12-27T08:49:20.733Z,3.64
2017-12-27T08:50:20.726Z,3.63
2017-12-27T08:51:20.696Z,3.62
2017-12-27T08:52:20.718Z,3.62
2017-12-27T08:53:20.653Z,3.61
2017-12-27T08:54:20.646Z,3.6
2017-12-27T08:55:21.064Z,3.59
2017-12-27T08:56:20.730Z,3.58
2017-12-27T08:57:20.659Z,3.58
2017-12-27T08:58:20.700Z,3.57
2017-12-27T08:59:20.729Z,3.56
2017-12-27T09:00:20.754Z,3.56
2017-12-27T09:01:20.702Z,3.56
2017-12-27T09:02:20.699Z,3.56
2017-12-27T09:03:20.712Z,3.56
2017-12-27T09:04:20.703Z,3.57
2017-12-27T09:05:20.715Z,3.56
2017-12-27T09:06:20.759Z,3.57
2017-12-27T09:07:20.701Z,3.57
2017-12-27T09:08:20.727Z,3.57
2017-12-27T09:09:20.734Z,3.58
2017-12-27T09:10:20.743Z,3.58
2017-12-27T09:11:20.672Z,3.6
2017-12-27T09:12:20.735Z,3.61
2017-12-27T09:13:20.684Z,3.61
2017-12-27T09:14:20.686Z,3.63
2017-12-27T09:15:20.833Z,3.66
2017-12-27T09:16:20.695Z,3.67
2017-12-27T09:17:20.746Z,3.69
2017-12-27T09:18:20.702Z,3.7
2017-12-27T09:19:20.730Z,3.7
2017-12-27T09:20:20.893Z,3.72
2017-12-27T09:21:20.755Z,3.73
2017-12-27T09:22:20.720Z,3.73
2017-12-27T09:23:20.692Z,3.73
2017-12-27T09:24:20.734Z,3.76
2017-12-27T09:25:20.791Z,3.75
2017-12-27T09:26:20.773Z,3.76
2017-12-27T09:27:20.711Z,3.77
2017-12-27T09:28:20.684Z,3.78
2017-12-27T09:29:20.700Z,3.8
2017-12-27T09:30:20.863Z,3.82
2017-12-27T09:31:20.796Z,3.83
2017-12-27T09:32:20.747Z,3.86
2017-12-27T09:33:20.717Z,3.88
2017-12-27T09:34:20.714Z,3.92
2017-12-27T09:35:20.755Z,3.93
2017-12-27T09:36:20.750Z,3.95
2017-12-27T09:37:20.750Z,3.98
2017-12-27T09:38:20.725Z,4.02
2017-12-27T09:39:20.744Z,4.02
2017-12-27T09:40:20.721Z,4.03
2017-12-27T09:41:20.735Z,4.04
2017-12-27T09:42:20.766Z,4.05
2017-12-27T09:43:20.741Z,4.04
2017-12-27T09:44:20.723Z,4.04
2017-12-27T09:45:20.711Z,4.05
2017-12-27T09:46:20.728Z,4.06
2017-12-27T09:47:20.927Z,4.06
2017-12-27T09:48:20.733Z,4.06
2017-12-27T09:49:20.682Z,4.07
2017-12-27T09:50:20.739Z,4.07
2017-12-27T09:51:20.754Z,4.08
2017-12-27T09:52:20.793Z,4.09
2017-12-27T09:53:20.750Z,4.07
2017-12-27T09:54:20.733Z,4.1
2017-12-27T09:55:20.850Z,4.1
2017-12-27T09:56:20.725Z,4.11
2017-12-27T09:57:20.802Z,4.13
2017-12-27T09:58:20.741Z,4.13
2017-12-27T09:59:20.728Z,4.13
2017-12-27T10:00:20.758Z,4.13
2017-12-27T10:01:20.721Z,4.13
2017-12-27T10:02:20.885Z,4.14
2017-12-27T10:03:20.748Z,4.14
2017-12-27T10:04:20.701Z,4.16
2017-12-27T10:05:20.711Z,4.16
2017-12-27T10:06:20.742Z,4.19
2017-12-27T10:07:20.746Z,4.2
2017-12-27T10:08:20.776Z,4.22
2017-12-27T10:09:20.742Z,4.23
2017-12-27T10:10:20.723Z,4.23
2017-12-27T10:11:20.761Z,4.26
2017-12-27T10:12:20.767Z,4.27
2017-12-27T10:13:20.872Z,4.31
2017-12-27T10:14:20.748Z,4.33
2017-12-27T10:15:20.756Z,4.36
2017-12-27T10:16:20.761Z,4.36
2017-12-27T10:17:20.769Z,4.38
2017-12-27T10:18:20.812Z,4.4
2017-12-27T10:19:20.782Z,4.43
2017-12-27T10:20:20.756Z,4.43
2017-12-27T10:21:20.717Z,4.44
2017-12-27T10:22:20.763Z,4.44
2017-12-27T10:23:20.752Z,4.47
2017-12-27T10:24:20.774Z,4.48
2017-12-27T10:25:20.903Z,4.49
2017-12-27T10:26:20.731Z,4.51
2017-12-27T10:27:20.771Z,4.51
2017-12-27T10:28:20.887Z,4.51
2017-12-27T10:29:20.774Z,4.52
2017-12-27T10:30:20.960Z,4.54
2017-12-27T10:31:20.807Z,4.6
2017-12-27T10:32:20.757Z,4.62
2017-12-27T10:33:20.798Z,4.64
2017-12-27T10:34:20.768Z,4.64
2017-12-27T10:35:20.778Z,4.67
2017-12-27T10:36:20.737Z,4.7
2017-12-27T10:37:20.781Z,4.76
2017-12-27T10:38:20.741Z,4.78
2017-12-27T10:39:20.768Z,4.81
2017-12-27T10:40:20.786Z,4.82
2017-12-27T10:41:20.768Z,4.88
2017-12-27T10:42:20.763Z,4.9
2017-12-27T10:43:20.776Z,4.9
2017-12-27T10:44:20.762Z,4.92
2017-12-27T10:45:20.882Z,4.94
2017-12-27T10:46:20.894Z,4.98
2017-12-27T10:47:20.909Z,4.99
2017-12-27T10:48:20.871Z,5
2017-12-27T10:49:20.772Z,5.01
2017-12-27T10:50:20.819Z,5.03
2017-12-27T10:51:20.818Z,5.05
2017-12-27T10:52:20.842Z,5.05
2017-12-27T10:53:20.818Z,5.08
2017-12-27T10:54:20.925Z,5.09
2017-12-27T10:55:20.832Z,5.1
2017-12-27T10:56:20.762Z,5.11
2017-12-27T10:57:20.872Z,5.12
2017-12-27T10:58:20.863Z,5.13
2017-12-27T10:59:20.943Z,5.14
2017-12-27T11:00:20.853Z,5.15
2017-12-27T11:01:20.908Z,5.16
2017-12-27T11:02:20.807Z,5.14
2017-12-27T11:03:20.906Z,5.16
2017-12-27T11:04:20.881Z,5.19
2017-12-27T11:05:20.907Z,5.22
2017-12-27T11:06:21.042Z,5.21
2017-12-27T11:07:20.880Z,5.23
2017-12-27T11:08:20.806Z,5.24
2017-12-27T11:09:20.846Z,5.26
2017-12-27T11:10:20.777Z,5.26
2017-12-27T11:11:20.852Z,5.29
2017-12-27T11:12:20.840Z,5.3
2017-12-27T11:13:20.830Z,5.32
2017-12-27T11:14:20.823Z,5.32
2017-12-27T11:15:20.903Z,5.33
2017-12-27T11:16:20.959Z,5.35
2017-12-27T11:17:20.816Z,5.37
2017-12-27T11:18:20.884Z,5.38
2017-12-27T11:19:20.876Z,5.39
2017-12-27T11:20:20.919Z,5.39
2017-12-27T11:21:20.910Z,5.42
2017-12-27T11:22:20.893Z,5.43
2017-12-27T11:23:20.836Z,5.44
2017-12-27T11:24:20.942Z,5.47
2017-12-27T11:25:20.850Z,5.49
2017-12-27T11:26:20.969Z,5.52
2017-12-27T11:27:20.849Z,5.53
2017-12-27T11:28:20.839Z,5.55
2017-12-27T11:29:20.870Z,5.56
2017-12-27T11:30:20.990Z,5.58
2017-12-27T11:31:20.976Z,5.6
2017-12-27T11:32:20.824Z,5.6
2017-12-27T11:33:20.906Z,5.6
2017-12-27T11:34:20.902Z,5.61
2017-12-27T11:35:20.831Z,5.6
2017-12-27T11:36:20.956Z,5.6
2017-12-27T11:37:20.846Z,5.59
2017-12-27T11:38:20.837Z,5.59
2017-12-27T11:39:20.961Z,5.59
2017-12-27T11:40:20.935Z,5.58
2017-12-27T11:41:20.964Z,5.58
2017-12-27T11:42:20.991Z,5.58
2017-12-27T11:43:20.904Z,5.58
2017-12-27T11:44:20.916Z,5.59
2017-12-27T12:39:21.299Z,5.57
2017-12-27T12:40:21.283Z,5.53
2017-12-27T12:41:21.272Z,5.53
2017-12-27T12:42:21.280Z,5.52
2017-12-27T12:43:21.265Z,5.52
2017-12-27T12:44:23.565Z,5.51
2017-12-27T12:45:21.299Z,5.51
2017-12-27T12:46:21.265Z,5.51
2017-12-27T12:47:21.275Z,5.52
2017-12-27T12:48:21.299Z,5.51
2017-12-27T12:49:21.260Z,5.52
2017-12-27T12:50:21.249Z,5.51
2017-12-27T12:51:21.335Z,5.52
2017-12-27T12:52:21.268Z,5.52
2017-12-27T12:53:21.264Z,5.52
2017-12-27T12:54:21.381Z,5.54
2017-12-27T12:55:21.240Z,5.54
2017-12-27T12:56:21.251Z,5.56
2017-12-27T12:57:21.376Z,5.57
2017-12-27T12:58:21.253Z,5.58
2017-12-27T12:59:21.281Z,5.59
2017-12-27T13:00:21.494Z,5.59
2017-12-27T13:01:21.244Z,5.62
2017-12-27T13:02:21.248Z,5.63
2017-12-27T13:03:22.327Z,5.64
2017-12-27T13:04:21.255Z,5.64
2017-12-27T13:05:21.348Z,5.65
2017-12-27T13:06:21.342Z,5.66
2017-12-27T13:07:21.270Z,5.66
2017-12-27T13:08:21.266Z,5.67
2017-12-27T13:09:21.410Z,5.68
2017-12-27T13:10:21.278Z,5.69
2017-12-27T13:11:21.340Z,5.69
2017-12-27T13:12:21.358Z,5.7
2017-12-27T13:13:21.984Z,5.72
2017-12-27T13:14:22.275Z,5.73
2017-12-27T13:15:22.109Z,5.75
2017-12-27T13:16:21.285Z,5.76
2017-12-27T13:17:21.296Z,5.77
2017-12-27T13:18:21.325Z,5.79
2017-12-27T13:19:21.246Z,5.81
2017-12-27T13:20:21.268Z,5.81
2017-12-27T13:21:21.475Z,5.83
2017-12-27T13:22:21.272Z,5.84
2017-12-27T13:23:21.268Z,5.85
2017-12-27T13:24:21.262Z,5.86
2017-12-27T13:25:21.282Z,5.87
2017-12-27T13:26:21.568Z,5.88
2017-12-27T13:27:21.359Z,5.89
2017-12-27T13:28:21.692Z,5.9
2017-12-27T13:29:21.308Z,5.9
2017-12-27T13:30:21.361Z,5.9
2017-12-27T13:31:21.308Z,5.9
2017-12-27T13:32:21.306Z,5.91
2017-12-27T13:33:21.425Z,5.91
2017-12-27T13:34:21.390Z,5.92
2017-12-27T13:35:21.298Z,5.91
2017-12-27T13:36:22.513Z,5.92
2017-12-27T13:37:21.455Z,5.92
2017-12-27T13:38:21.277Z,5.93
2017-12-27T13:39:21.317Z,5.93
2017-12-27T13:40:21.347Z,5.93
2017-12-27T13:41:21.316Z,5.93
2017-12-27T13:42:21.398Z,5.94
2017-12-27T13:43:21.314Z,5.94
2017-12-27T13:44:21.285Z,5.95
2017-12-27T13:45:21.394Z,5.95
2017-12-27T13:46:21.311Z,5.95
2017-12-27T13:47:21.289Z,5.94
2017-12-27T13:48:21.415Z,5.95
2017-12-27T13:49:21.476Z,5.93
2017-12-27T13:50:21.324Z,5.93
2017-12-27T13:51:25.019Z,5.93
2017-12-27T13:52:21.303Z,5.92
2017-12-27T13:53:21.310Z,5.9
2017-12-27T13:54:21.500Z,5.89
2017-12-27T13:55:21.308Z,5.88
2017-12-27T13:56:21.358Z,5.86
2017-12-27T13:57:21.385Z,5.84
2017-12-27T13:58:21.335Z,5.82
2017-12-27T13:59:21.429Z,5.81
2017-12-27T14:00:21.408Z,5.8
2017-12-27T14:01:21.451Z,5.79
2017-12-27T14:02:21.303Z,5.78
2017-12-27T14:03:21.414Z,5.76
2017-12-27T14:04:21.972Z,5.75
2017-12-27T14:05:22.389Z,5.73
2017-12-27T14:06:21.423Z,5.71
2017-12-27T14:07:21.396Z,5.7
2017-12-27T14:08:21.361Z,5.69
2017-12-27T14:09:21.449Z,5.66
2017-12-27T14:10:21.387Z,5.65
2017-12-27T14:11:22.496Z,5.62
2017-12-27T14:12:21.414Z,5.58
2017-12-27T14:13:21.348Z,5.56
2017-12-27T14:14:21.368Z,5.55
2017-12-27T14:15:21.371Z,5.53
2017-12-27T14:16:21.413Z,5.51
2017-12-27T14:17:21.344Z,5.5
2017-12-27T14:18:21.456Z,5.46
2017-12-27T14:19:21.366Z,5.44
2017-12-27T14:20:21.361Z,5.42
2017-12-27T14:21:21.446Z,5.4
2017-12-27T14:22:21.344Z,5.37
2017-12-27T14:23:21.492Z,5.33
2017-12-27T14:24:21.479Z,5.3
2017-12-27T14:25:21.388Z,5.28
2017-12-27T14:26:21.347Z,5.26
2017-12-27T14:27:21.389Z,5.23
2017-12-27T14:28:21.352Z,5.22
2017-12-27T14:29:21.409Z,5.2
2017-12-27T14:30:21.394Z,5.18
2017-12-27T14:31:21.500Z,5.16